Time;durP1;ratioP1;P1;durP2;ratioP2;P2;SDS_P1;SDS_P2;PMS_P1;PMS_P2;Temp;Humidity;BMP_temperature;BMP_pressure;BME280_temperature;BME280_humidity;BME280_pressure;Samples;Min_cycle;Max_cycle;Signal;HPM_P1;HPM_P2
2024/04/09 00:00:36;;;;;;;7.13;3.53;;;14.90;75.30;;;;;;6855244;26;20526;-61
2024/04/09 00:03:44;;;;;;;4.33;3.80;;;15.00;76.20;;;;;;6856613;26;20455;-62
2024/04/09 00:06:48;;;;;;;5.47;3.43;;;14.90;76.70;;;;;;6856605;26;20791;-60
2024/04/09 00:10:06;;;;;;;5.87;3.30;;;14.90;77.20;;;;;;6857607;26;20467;-62
2024/04/09 00:13:22;;;;;;;4.43;3.37;;;14.80;77.90;;;;;;6778850;26;20464;-61
2024/04/09 00:16:39;;;;;;;4.70;3.63;;;14.80;79.10;;;;;;6811174;26;20551;-60
2024/04/09 00:19:50;;;;;;;5.30;4.30;;;14.70;80.20;;;;;;6817100;26;20531;-60
2024/04/09 00:22:59;;;;;;;6.03;4.10;;;14.60;81.90;;;;;;6856175;26;20609;-60
2024/04/09 00:26:06;;;;;;;7.23;4.40;;;14.60;83.40;;;;;;6857019;26;21048;-61
2024/04/09 00:29:20;;;;;;;4.33;3.50;;;14.60;84.30;;;;;;6855900;26;20462;-60
2024/04/09 00:32:51;;;;;;;4.10;3.70;;;14.50;85.80;;;;;;6833105;26;20469;-61
2024/04/09 00:35:59;;;;;;;6.50;4.47;;;14.50;87.90;;;;;;6825293;26;20808;-61
2024/04/09 00:39:18;;;;;;;4.87;3.90;;;14.50;90.10;;;;;;6860024;26;20446;-61
2024/04/09 00:42:25;;;;;;;7.83;3.43;;;14.50;90.80;;;;;;6859927;26;20443;-61
2024/04/09 00:45:36;;;;;;;4.73;4.17;;;14.50;91.40;;;;;;6860256;26;20536;-61
2024/04/09 00:48:58;;;;;;;6.50;4.57;;;14.40;91.80;;;;;;6860507;26;20814;-61
2024/04/09 00:52:05;;;;;;;4.80;4.30;;;14.40;92.50;;;;;;6836752;26;20858;-61
2024/04/09 00:55:17;;;;;;;5.00;4.23;;;14.40;93.40;;;;;;6807503;26;20460;-60
2024/04/09 00:58:25;;;;;;;4.33;4.03;;;14.40;93.70;;;;;;6815711;26;20516;-61
2024/04/09 01:01:35;;;;;;;5.03;4.60;;;14.40;94.30;;;;;;6814312;26;20512;-61
2024/04/09 01:05:06;;;;;;;4.77;4.37;;;14.40;94.90;;;;;;6813670;26;20468;-61
2024/04/09 01:08:09;;;;;;;7.50;5.13;;;14.30;95.50;;;;;;6850857;26;20971;-61
2024/04/09 01:11:16;;;;;;;6.37;5.17;;;14.30;95.80;;;;;;6861236;26;20466;-61
2024/04/09 01:14:20;;;;;;;6.03;4.60;;;14.30;96.10;;;;;;6850178;26;20482;-61
2024/04/09 01:17:28;;;;;;;7.20;4.90;;;14.20;96.50;;;;;;6828131;26;20480;-60
2024/04/09 01:20:52;;;;;;;5.10;4.33;;;14.20;96.80;;;;;;6860345;26;20503;-61
2024/04/09 01:23:59;;;;;;;8.20;4.80;;;14.10;97.10;;;;;;6858934;26;21056;-61
2024/04/09 01:27:14;;;;;;;5.30;4.87;;;14.10;97.50;;;;;;6859449;26;20924;-62
2024/04/09 01:30:18;;;;;;;5.50;5.00;;;14.00;97.90;;;;;;6827265;26;20534;-61
2024/04/09 01:33:31;;;;;;;6.53;4.53;;;13.90;98.20;;;;;;6868539;25;20521;-61
2024/04/09 01:36:37;;;;;;;6.70;4.90;;;13.90;98.50;;;;;;6905645;25;20537;-61
2024/04/09 01:39:59;;;;;;;6.50;5.53;;;13.80;98.90;;;;;;6906375;25;20457;-61
2024/04/09 01:43:06;;;;;;;7.07;5.70;;;13.80;99.60;;;;;;6905659;25;20602;-61
2024/04/09 01:46:14;;;;;;;5.20;4.77;;;13.70;99.90;;;;;;6905431;25;20517;-61
2024/04/09 01:49:20;;;;;;;6.50;6.00;;;13.70;99.90;;;;;;6857278;26;20478;-61
2024/04/09 01:52:40;;;;;;;7.40;5.60;;;13.60;99.90;;;;;;6859652;26;20510;-61
2024/04/09 01:56:05;;;;;;;6.70;6.10;;;13.50;99.90;;;;;;6858920;26;20486;-61
2024/04/09 01:59:11;;;;;;;7.00;6.00;;;13.50;99.90;;;;;;6864768;26;20451;-61
2024/04/09 02:02:21;;;;;;;7.13;6.07;;;13.50;99.90;;;;;;6866258;26;20526;-61
2024/04/09 02:05:28;;;;;;;6.33;5.83;;;13.50;99.90;;;;;;6863029;26;20526;-61
2024/04/09 02:08:32;;;;;;;7.63;6.70;;;13.40;99.90;;;;;;6862347;26;20462;-60
2024/04/09 02:11:54;;;;;;;7.23;6.00;;;13.40;99.90;;;;;;6859925;26;20502;-62
2024/04/09 02:14:59;;;;;;;6.47;5.97;;;13.40;99.90;;;;;;6858183;26;20534;-61
2024/04/09 02:18:06;;;;;;;9.27;6.70;;;13.30;99.90;;;;;;6903997;25;20560;-61
2024/04/09 02:21:09;;;;;;;6.40;5.80;;;13.30;99.90;;;;;;6904722;25;20477;-61
2024/04/09 02:24:28;;;;;;;7.70;6.20;;;13.30;99.90;;;;;;6886593;25;20557;-60
2024/04/09 02:27:45;;;;;;;7.53;6.83;;;13.20;99.90;;;;;;6858925;26;20455;-60
2024/04/09 02:30:55;;;;;;;7.73;6.17;;;13.20;99.90;;;;;;6857636;26;21082;-60
2024/04/09 02:34:00;;;;;;;7.37;6.00;;;13.20;99.90;;;;;;6858342;26;20530;-61
2024/04/09 02:37:09;;;;;;;6.90;6.30;;;13.10;99.90;;;;;;6858093;26;20534;-61
2024/04/09 02:40:17;;;;;;;9.27;6.50;;;13.00;99.90;;;;;;6859016;26;20519;-61
2024/04/09 02:43:42;;;;;;;7.60;6.90;;;13.00;99.90;;;;;;6863587;25;20471;-60
2024/04/09 02:46:46;;;;;;;9.80;5.90;;;12.90;99.90;;;;;;6905692;25;20465;-60
2024/04/09 02:49:54;;;;;;;8.10;7.40;;;12.90;99.90;;;;;;6909209;25;20518;-61
2024/04/09 02:52:59;;;;;;;7.20;6.50;;;12.80;99.90;;;;;;6884047;25;20837;-62
2024/04/09 02:56:16;;;;;;;8.13;7.40;;;12.70;99.90;;;;;;6903692;25;20469;-61
2024/04/09 02:59:27;;;;;;;10.60;6.40;;;12.70;99.90;;;;;;6902816;25;20583;-60
2024/04/09 03:02:31;;;;;;;7.77;7.17;;;12.70;99.90;;;;;;6901520;25;20564;-61
2024/04/09 03:05:46;;;;;;;7.63;6.87;;;12.60;99.90;;;;;;6903303;25;20469;-62
2024/04/09 03:08:51;;;;;;;7.13;6.53;;;12.60;99.90;;;;;;6903758;25;20947;-60
2024/04/09 03:12:01;;;;;;;9.77;8.97;;;12.60;99.90;;;;;;6873518;25;20518;-60
2024/04/09 03:15:34;;;;;;;8.17;7.30;;;12.50;99.90;;;;;;6857241;26;20521;-61
2024/04/09 03:18:48;;;;;;;8.50;7.67;;;12.50;99.90;;;;;;6857355;26;21120;-61
2024/04/09 03:21:54;;;;;;;9.90;7.20;;;12.50;99.90;;;;;;6895582;25;21006;-61
2024/04/09 03:24:57;;;;;;;8.33;7.43;;;12.40;99.90;;;;;;6878100;25;21094;-61
2024/04/09 03:28:12;;;;;;;8.10;7.50;;;12.40;99.90;;;;;;6857012;26;20466;-60
2024/04/09 03:31:38;;;;;;;7.50;6.77;;;12.40;99.90;;;;;;6858122;26;20576;-60
2024/04/09 03:34:46;;;;;;;7.80;7.10;;;12.30;99.90;;;;;;6857545;26;20806;-60
2024/04/09 03:37:55;;;;;;;8.60;7.70;;;12.30;99.90;;;;;;6857562;26;20511;-61
2024/04/09 03:41:08;;;;;;;7.43;6.70;;;12.30;99.90;;;;;;6857198;26;20877;-61
2024/04/09 03:44:22;;;;;;;9.13;7.40;;;12.20;99.90;;;;;;6856865;26;20483;-60
2024/04/09 03:47:41;;;;;;;11.50;7.80;;;12.10;99.90;;;;;;6857772;26;20451;-61
2024/04/09 03:50:48;;;;;;;7.70;7.00;;;12.00;99.90;;;;;;6857001;25;20821;-61
2024/04/09 03:54:00;;;;;;;8.23;7.60;;;12.00;99.90;;;;;;6849348;25;20546;-61
2024/04/09 03:57:05;;;;;;;7.90;7.10;;;12.00;99.90;;;;;;6856091;25;20458;-62
2024/04/09 04:00:27;;;;;;;12.03;7.20;;;12.00;99.90;;;;;;6856076;26;20875;-62
2024/04/09 04:03:38;;;;;;;11.50;7.20;;;12.10;99.90;;;;;;6855955;25;20518;-62
2024/04/09 04:06:53;;;;;;;11.10;7.80;;;12.10;99.90;;;;;;6856098;25;20467;-60
2024/04/09 04:10:00;;;;;;;10.60;8.27;;;12.10;99.90;;;;;;6856035;26;20458;-62
2024/04/09 04:13:05;;;;;;;7.40;6.73;;;12.10;99.90;;;;;;6859276;26;20973;-61
2024/04/09 04:16:13;;;;;;;12.63;8.37;;;12.00;99.90;;;;;;6866095;25;20517;-61
2024/04/09 04:19:30;;;;;;;11.80;8.70;;;12.00;99.90;;;;;;6889379;25;20522;-60
2024/04/09 04:22:44;;;;;;;8.70;7.57;;;11.90;99.90;;;;;;6905399;25;20599;-61
2024/04/09 04:25:54;;;;;;;8.10;7.33;;;11.90;99.90;;;;;;6893590;25;20755;-58
2024/04/09 04:29:03;;;;;;;11.27;7.80;;;12.00;99.90;;;;;;6896543;25;20469;-58
2024/04/09 04:32:20;;;;;;;11.13;7.70;;;12.10;99.90;;;;;;6901829;25;20463;-57
2024/04/09 04:35:27;;;;;;;9.70;7.70;;;12.20;99.90;;;;;;6905764;25;20789;-61
2024/04/09 04:38:36;;;;;;;13.33;9.37;;;12.20;99.90;;;;;;6899963;25;20652;-61
2024/04/09 04:41:40;;;;;;;9.47;7.30;;;12.20;99.90;;;;;;6897812;25;20592;-61
2024/04/09 04:44:49;;;;;;;10.10;7.97;;;12.30;99.90;;;;;;6905185;25;20472;-61
2024/04/09 04:47:54;;;;;;;7.63;7.03;;;12.40;99.90;;;;;;6905492;25;20508;-62
2024/04/09 04:51:19;;;;;;;10.03;7.30;;;12.50;99.90;;;;;;6901557;25;20461;-60
2024/04/09 04:54:21;;;;;;;10.53;7.53;;;12.60;99.90;;;;;;6897198;25;20477;-62
2024/04/09 04:57:29;;;;;;;9.90;7.43;;;12.80;99.90;;;;;;6904889;25;20468;-62
2024/04/09 05:00:43;;;;;;;9.53;6.80;;;12.90;99.90;;;;;;6907398;25;20477;-61
2024/04/09 05:03:52;;;;;;;8.27;7.47;;;13.10;99.90;;;;;;6905197;25;20485;-61
2024/04/09 05:07:06;;;;;;;12.27;6.43;;;13.30;99.90;;;;;;6905831;25;20717;-61
2024/04/09 05:10:15;;;;;;;9.17;8.33;;;13.60;99.90;;;;;;6906279;25;20580;-61
2024/04/09 05:13:23;;;;;;;8.40;7.60;;;14.00;99.90;;;;;;6882562;25;20803;-62
2024/04/09 05:16:32;;;;;;;7.93;6.70;;;14.50;99.90;;;;;;6859184;25;20462;-60
2024/04/09 05:19:36;;;;;;;7.43;6.73;;;15.20;99.90;;;;;;6858876;26;20581;-61
2024/04/09 05:22:49;;;;;;;11.03;6.80;;;16.00;99.90;;;;;;6857281;26;20652;-63
2024/04/09 05:25:54;;;;;;;10.03;7.53;;;16.70;99.90;;;;;;6858483;25;20470;-62
2024/04/09 05:29:10;;;;;;;9.50;6.90;;;17.40;98.40;;;;;;6859262;26;20458;-61
2024/04/09 05:32:16;;;;;;;7.80;6.40;;;18.00;96.50;;;;;;6867270;25;20644;-61
2024/04/09 05:35:25;;;;;;;12.03;7.27;;;18.80;94.70;;;;;;6905504;25;20280;-61
2024/04/09 05:38:37;;;;;;;6.97;6.33;;;19.50;92.30;;;;;;6904672;25;20267;-61
2024/04/09 05:41:52;;;;;;;6.17;5.60;;;20.30;90.50;;;;;;6904171;25;20229;-61
2024/04/09 05:44:58;;;;;;;7.33;6.57;;;21.10;86.00;;;;;;6904596;25;20237;-62
2024/04/09 05:48:12;;;;;;;7.77;5.90;;;21.80;82.30;;;;;;6906174;25;20248;-62
2024/04/09 05:51:16;;;;;;;7.00;6.30;;;22.30;77.80;;;;;;6904454;25;20321;-61
2024/04/09 05:54:43;;;;;;;10.13;7.57;;;22.90;74.70;;;;;;6906532;25;20241;-62
2024/04/09 05:57:48;;;;;;;9.53;6.73;;;23.60;71.10;;;;;;6906914;25;20276;-63
2024/04/09 06:01:02;;;;;;;7.40;6.70;;;24.30;67.90;;;;;;6875468;25;20238;-62
2024/04/09 06:04:06;;;;;;;7.93;5.93;;;25.10;64.10;;;;;;6860598;26;20229;-62
2024/04/09 06:07:25;;;;;;;8.27;6.73;;;26.10;60.10;;;;;;6860129;26;20240;-61
2024/04/09 06:10:46;;;;;;;12.37;6.77;;;26.90;56.90;;;;;;6893392;25;20833;-63
2024/04/09 06:13:53;;;;;;;8.00;7.23;;;27.90;53.80;;;;;;6907211;25;20635;-62
2024/04/09 06:17:01;;;;;;;9.93;7.60;;;28.60;51.30;;;;;;6908133;25;20628;-63
2024/04/09 06:20:09;;;;;;;7.77;7.00;;;29.00;49.50;;;;;;6883949;25;20224;-62
2024/04/09 06:23:27;;;;;;;8.87;7.57;;;29.30;48.40;;;;;;6907680;25;20216;-61
2024/04/09 06:26:41;;;;;;;16.67;7.10;;;29.80;47.10;;;;;;6859529;25;20283;-63
2024/04/09 06:29:50;;;;;;;14.20;7.90;;;30.30;46.10;;;;;;6858505;26;20504;-62
2024/04/09 06:32:54;;;;;;;8.73;7.43;;;30.70;44.60;;;;;;6903472;25;20212;-63
2024/04/09 06:36:03;;;;;;;11.75;7.18;;;30.90;43.50;;;;;;6904207;25;20336;-63
2024/04/09 06:39:32;;;;;;;14.40;10.50;;;31.10;42.40;;;;;;6903022;25;20220;-63
2024/04/09 06:42:43;;;;;;;9.88;7.90;;;31.30;41.40;;;;;;6904036;25;20673;-62
2024/04/09 06:45:59;;;;;;;10.13;8.48;;;31.50;40.60;;;;;;6903367;25;20236;-63
2024/04/09 06:49:12;;;;;;;9.63;7.13;;;31.70;39.70;;;;;;6903453;25;20335;-62
2024/04/09 06:52:20;;;;;;;8.73;5.88;;;31.90;39.50;;;;;;6903839;25;20514;-62
2024/04/09 06:55:24;;;;;;;8.63;6.07;;;32.00;38.70;;;;;;6899413;25;20682;-63
2024/04/09 06:58:47;;;;;;;9.10;5.35;;;32.10;38.30;;;;;;6845994;26;20267;-63
2024/04/09 07:01:58;;;;;;;14.13;6.28;;;32.40;37.70;;;;;;6895046;25;20233;-62
2024/04/09 07:05:03;;;;;;;12.90;6.15;;;32.50;37.40;;;;;;6901707;25;20232;-64
2024/04/09 07:08:10;;;;;;;6.78;5.43;;;32.50;36.90;;;;;;6904280;25;20232;-64
2024/04/09 07:11:17;;;;;;;11.77;6.07;;;32.40;36.80;;;;;;6903377;25;20228;-63
2024/04/09 07:14:40;;;;;;;6.40;5.38;;;32.50;36.90;;;;;;6899951;25;20235;-62
2024/04/09 07:17:44;;;;;;;6.75;5.50;;;32.80;36.50;;;;;;6891873;25;20249;-62
2024/04/09 07:20:50;;;;;;;8.45;5.03;;;32.80;36.70;;;;;;6889062;25;20333;-63
2024/04/09 07:23:55;;;;;;;7.78;5.75;;;33.10;36.10;;;;;;6887619;25;20344;-63
2024/04/09 07:27:02;;;;;;;7.47;5.82;;;33.60;35.50;;;;;;6877456;25;20251;-63
2024/04/09 07:30:14;;;;;;;10.02;6.07;;;34.10;34.70;;;;;;6888995;25;20776;-63
2024/04/09 07:33:26;;;;;;;15.27;5.72;;;33.80;33.40;;;;;;6889103;25;20232;-62
2024/04/09 07:36:44;;;;;;;5.78;5.18;;;33.80;34.50;;;;;;6889001;25;20244;-62
2024/04/09 07:39:51;;;;;;;7.60;5.85;;;34.30;33.60;;;;;;6897109;25;20335;-63
2024/04/09 07:42:58;;;;;;;12.60;6.32;;;34.50;32.90;;;;;;6898129;25;20282;-63
2024/04/09 07:46:16;;;;;;;6.20;5.25;;;35.10;32.60;;;;;;6902321;25;20233;-65
2024/04/09 07:49:23;;;;;;;6.15;5.35;;;35.70;31.70;;;;;;6904518;25;20244;-61
2024/04/09 07:52:30;;;;;;;7.55;5.75;;;35.70;31.40;;;;;;6889228;25;20239;-61
2024/04/09 07:55:42;;;;;;;7.15;5.57;;;36.20;31.20;;;;;;6888515;25;20240;-62
2024/04/09 07:58:46;;;;;;;7.03;5.38;;;36.40;30.20;;;;;;6866835;25;20331;-62
2024/04/09 08:02:09;;;;;;;6.85;5.10;;;36.50;29.90;;;;;;6903358;25;20236;-61
2024/04/09 08:05:16;;;;;;;10.43;4.95;;;36.50;29.30;;;;;;6902631;25;20359;-62
2024/04/09 08:08:25;;;;;;;6.70;5.28;;;35.90;29.00;;;;;;6901849;25;20798;-62
2024/04/09 08:11:32;;;;;;;7.85;4.60;;;35.70;28.30;;;;;;6900583;25;20320;-61
2024/04/09 08:14:41;;;;;;;8.23;4.90;;;33.80;29.90;;;;;;6869275;25;20233;-61
2024/04/09 08:18:02;;;;;;;5.82;4.20;;;33.80;30.00;;;;;;6892280;25;20290;-62
2024/04/09 08:21:09;;;;;;;4.78;4.10;;;34.20;29.20;;;;;;6876338;25;20472;-64
2024/04/09 08:24:24;;;;;;;4.97;4.40;;;34.00;29.40;;;;;;6870788;25;20232;-65
2024/04/09 08:27:28;;;;;;;6.03;4.75;;;32.60;30.80;;;;;;6855858;25;20506;-65
2024/04/09 08:30:36;;;;;;;7.80;4.63;;;31.60;32.10;;;;;;6853375;26;20226;-64
2024/04/09 08:33:49;;;;;;;10.93;4.75;;;31.10;32.40;;;;;;6852026;25;20237;-65
2024/04/09 08:37:05;;;;;;;6.43;4.18;;;31.10;31.80;;;;;;6859417;26;20526;-63
2024/04/09 08:40:13;;;;;;;7.45;5.30;;;31.00;32.10;;;;;;6858897;26;20229;-64
2024/04/09 08:43:19;;;;;;;7.45;4.72;;;30.00;33.50;;;;;;6854864;25;20222;-63
2024/04/09 08:46:31;;;;;;;6.55;4.40;;;30.50;32.60;;;;;;6846225;26;20676;-64
2024/04/09 08:49:58;;;;;;;8.30;4.70;;;31.70;31.20;;;;;;6835053;26;20621;-65
2024/04/09 08:53:06;;;;;;;5.90;4.25;;;32.40;30.30;;;;;;6865493;25;20972;-65
2024/04/09 08:56:20;;;;;;;5.38;4.43;;;33.20;29.70;;;;;;6843544;25;20354;-63
2024/04/09 08:59:26;;;;;;;10.95;4.95;;;34.10;29.00;;;;;;6821731;26;20226;-64
2024/04/09 09:02:35;;;;;;;6.90;4.78;;;33.50;29.00;;;;;;6858763;26;20229;-63
2024/04/09 09:05:50;;;;;;;6.57;4.38;;;33.20;29.90;;;;;;6849538;26;20229;-64
2024/04/09 09:08:58;;;;;;;8.52;5.03;;;35.60;28.10;;;;;;6859200;26;20652;-66
2024/04/09 09:12:13;;;;;;;5.28;4.53;;;37.20;26.10;;;;;;6815510;26;20722;-64
2024/04/09 09:15:21;;;;;;;15.38;4.35;;;37.30;25.70;;;;;;6841380;26;20261;-65
2024/04/09 09:18:29;;;;;;;6.07;4.70;;;37.20;25.10;;;;;;6833809;26;20676;-66
2024/04/09 09:21:42;;;;;;;7.30;4.60;;;36.90;25.50;;;;;;6853072;26;20221;-67
2024/04/09 09:24:50;;;;;;;9.02;4.25;;;36.70;26.20;;;;;;6853893;26;20287;-64
2024/04/09 09:28:08;;;;;;;5.88;3.92;;;38.10;25.20;;;;;;6854037;26;20375;-64
2024/04/09 09:31:18;;;;;;;8.30;4.68;;;38.70;25.10;;;;;;6856866;26;20276;-63
2024/04/09 09:34:40;;;;;;;11.45;5.25;;;40.70;23.90;;;;;;6874347;25;20492;-64
2024/04/09 09:37:57;;;;;;;6.68;4.05;;;40.90;22.90;;;;;;6898242;25;20244;-63
2024/04/09 09:41:19;;;;;;;7.55;3.75;;;40.50;23.30;;;;;;6902610;25;20236;-64
2024/04/09 09:44:29;;;;;;;5.40;4.18;;;41.10;23.10;;;;;;6903359;25;20244;-63
2024/04/09 09:47:40;;;;;;;10.32;4.30;;;41.60;22.30;;;;;;6904115;25;20857;-65
2024/04/09 09:51:04;;;;;;;8.43;4.10;;;42.30;21.00;;;;;;6870638;25;20236;-67
2024/04/09 09:54:23;;;;;;;8.10;4.32;;;43.60;20.60;;;;;;6871997;25;20343;-65
2024/04/09 09:57:38;;;;;;;7.03;3.97;;;41.20;21.70;;;;;;6902187;25;20889;-65
2024/04/09 10:00:47;;;;;;;7.40;3.95;;;41.60;22.00;;;;;;6904395;25;20288;-62
2024/04/09 10:03:59;;;;;;;10.10;4.22;;;41.10;21.90;;;;;;6904226;25;20258;-65
2024/04/09 10:07:04;;;;;;;7.97;4.38;;;39.30;23.00;;;;;;6865982;25;20336;-65
2024/04/09 10:10:27;;;;;;;7.75;3.97;;;40.10;22.60;;;;;;6890167;25;20621;-64
2024/04/09 10:13:35;;;;;;;9.00;4.68;;;41.30;22.40;;;;;;6901311;25;20290;-64
2024/04/09 10:16:40;;;;;;;7.05;4.65;;;42.40;21.80;;;;;;6899430;25;20691;-64
2024/04/09 10:19:52;;;;;;;8.18;4.93;;;40.10;22.00;;;;;;6898667;25;20228;-64
2024/04/09 10:23:01;;;;;;;7.25;4.00;;;40.70;22.30;;;;;;6901231;25;20271;-65
2024/04/09 10:26:25;;;;;;;10.20;4.28;;;40.80;21.80;;;;;;6901117;25;20315;-63
2024/04/09 10:29:36;;;;;;;7.38;4.32;;;42.00;20.40;;;;;;6870243;25;20233;-63
2024/04/09 10:32:39;;;;;;;5.10;4.40;;;41.10;20.40;;;;;;6854652;26;20221;-63
2024/04/09 10:39:14;;;;;;;6.65;3.80;;;39.60;22.20;;;;;;6856371;26;20233;-63
2024/04/09 10:42:27;;;;;;;7.00;4.20;;;38.70;23.50;;;;;;6856667;25;20283;-63
2024/04/09 10:45:35;;;;;;;7.72;4.57;;;40.80;22.10;;;;;;6857636;26;20238;-63
2024/04/09 10:49:01;;;;;;;8.55;5.63;;;41.50;20.50;;;;;;6889070;25;20643;-64
2024/04/09 10:52:07;;;;;;;8.27;4.80;;;42.10;20.70;;;;;;6904098;25;20307;-63
2024/04/09 10:55:16;;;;;;;7.07;4.20;;;42.10;20.90;;;;;;6795280;25;20235;-63
2024/04/09 10:58:40;;;;;;;8.43;3.67;;;42.20;20.40;;;;;;6855685;26;20562;-63
2024/04/09 11:01:45;;;;;;;6.00;3.78;;;41.50;20.40;;;;;;6854702;26;20229;-63
2024/04/09 11:04:59;;;;;;;5.82;4.20;;;41.40;21.00;;;;;;6900798;25;20537;-63
2024/04/09 11:08:07;;;;;;;7.68;4.35;;;41.50;20.80;;;;;;6901306;25;20309;-63
2024/04/09 11:11:15;;;;;;;10.63;4.45;;;42.20;18.90;;;;;;6872263;25;20310;-63
2024/04/09 11:14:20;;;;;;;11.63;5.20;;;40.30;20.00;;;;;;6855231;26;20288;-64
2024/04/09 11:17:33;;;;;;;14.02;4.82;;;40.20;20.20;;;;;;6872933;25;20228;-64
2024/04/09 11:20:41;;;;;;;14.23;4.72;;;40.00;20.40;;;;;;6876322;25;20233;-63
2024/04/09 11:27:14;;;;;;;7.63;4.22;;;40.90;19.90;;;;;;6811827;26;20232;-63
2024/04/09 11:30:29;;;;;;;7.68;3.90;;;40.10;20.10;;;;;;6856344;26;20314;-63
2024/04/09 11:33:38;;;;;;;11.45;4.20;;;40.60;19.70;;;;;;6847296;26;20233;-64
2024/04/09 11:36:53;;;;;;;8.85;4.47;;;40.50;19.70;;;;;;6855227;26;20229;-64
2024/04/09 11:40:03;;;;;;;12.10;4.28;;;39.80;20.50;;;;;;6854018;26;20229;-63
2024/04/09 11:43:16;;;;;;;9.65;4.75;;;39.20;20.40;;;;;;6854127;26;20636;-64
2024/04/09 11:46:32;;;;;;;8.60;3.97;;;39.70;19.20;;;;;;6861274;25;20294;-63
2024/04/09 11:49:38;;;;;;;9.32;4.07;;;38.40;21.00;;;;;;6885558;25;20221;-64
2024/04/09 11:52:47;;;;;;;9.77;3.78;;;38.20;20.90;;;;;;6900668;25;20531;-65
2024/04/09 11:55:53;;;;;;;8.30;3.80;;;36.80;21.50;;;;;;6888495;25;20233;-65
2024/04/09 11:59:02;;;;;;;8.98;3.95;;;37.30;21.70;;;;;;6899819;25;20689;-63
2024/04/09 12:02:19;;;;;;;5.22;4.38;;;36.60;22.00;;;;;;6900129;25;20293;-63
2024/04/09 12:05:26;;;;;;;7.53;4.07;;;36.30;22.50;;;;;;6899828;25;20274;-63
2024/04/09 12:08:32;;;;;;;10.50;4.68;;;36.70;22.30;;;;;;6898917;25;20814;-64
2024/04/09 12:11:40;;;;;;;13.07;4.43;;;36.00;22.30;;;;;;6898492;25;20216;-63
2024/04/09 12:14:45;;;;;;;13.07;4.45;;;35.40;23.10;;;;;;6899320;25;20348;-64
2024/04/09 12:17:59;;;;;;;12.60;4.45;;;35.50;23.10;;;;;;6899264;25;20507;-63
2024/04/09 12:21:06;;;;;;;5.88;3.53;;;35.20;23.00;;;;;;6865111;25;20229;-63
2024/04/09 12:24:17;;;;;;;11.88;4.47;;;34.50;23.30;;;;;;6847470;26;20276;-65
2024/04/09 12:27:25;;;;;;;14.27;5.05;;;33.70;23.40;;;;;;6881727;25;20315;-64
2024/04/09 12:30:46;;;;;;;14.23;3.88;;;33.50;23.70;;;;;;6883392;25;20240;-66
2024/04/09 12:33:55;;;;;;;9.57;4.15;;;33.70;23.30;;;;;;6903868;25;20236;-65
2024/04/09 12:37:05;;;;;;;7.75;3.15;;;33.90;21.50;;;;;;6901430;25;20232;-63
2024/04/09 12:40:11;;;;;;;12.45;3.78;;;34.10;18.20;;;;;;6859267;26;20233;-65
2024/04/09 12:43:23;;;;;;;14.95;3.90;;;34.00;19.80;;;;;;6880752;25;20875;-64
2024/04/09 12:46:31;;;;;;;20.48;4.03;;;33.20;19.20;;;;;;6874779;25;20237;-66
2024/04/09 12:49:48;;;;;;;10.30;3.83;;;33.40;19.60;;;;;;6861159;25;20659;-66
2024/04/09 12:53:05;;;;;;;18.55;4.13;;;33.20;21.20;;;;;;6904874;25;20328;-64
2024/04/09 12:56:11;;;;;;;14.10;3.58;;;33.10;18.20;;;;;;6905638;25;20279;-66
2024/04/09 12:59:20;;;;;;;12.45;4.38;;;33.00;18.20;;;;;;6906419;25;20220;-65
2024/04/09 13:02:40;;;;;;;7.38;3.08;;;33.20;17.70;;;;;;6905385;25;20220;-65
2024/04/09 13:05:59;;;;;;;13.32;2.83;;;32.80;18.30;;;;;;6905235;25;20237;-65
2024/04/09 13:09:16;;;;;;;7.60;2.67;;;32.30;18.20;;;;;;6906093;25;20352;-66
2024/04/09 13:12:33;;;;;;;10.00;4.90;;;32.30;18.20;;;;;;6904935;25;20661;-66
2024/04/09 13:15:39;;;;;;;7.63;2.83;;;31.90;18.80;;;;;;6907168;25;20241;-65
2024/04/09 13:18:48;;;;;;;15.07;3.78;;;31.80;18.90;;;;;;6895257;25;20259;-66
2024/04/09 13:22:00;;;;;;;7.20;3.25;;;31.40;19.50;;;;;;6858944;26;20569;-66
2024/04/09 13:25:08;;;;;;;21.25;4.10;;;31.60;19.60;;;;;;6855307;26;20345;-66
2024/04/09 13:28:12;;;;;;;13.05;3.30;;;31.70;19.20;;;;;;6904818;25;20611;-66
2024/04/09 13:31:19;;;;;;;15.18;4.43;;;31.50;19.50;;;;;;6896285;25;20736;-68
2024/04/09 13:34:25;;;;;;;11.57;3.17;;;31.40;19.30;;;;;;6906882;25;20330;-67
2024/04/09 13:37:43;;;;;;;7.80;3.63;;;31.30;19.60;;;;;;6846052;26;20230;-68
2024/04/09 13:40:50;;;;;;;12.85;3.40;;;31.10;19.20;;;;;;6894128;25;20234;-68
2024/04/09 13:44:05;;;;;;;20.35;3.55;;;30.90;19.90;;;;;;6891972;25;20224;-66
2024/04/09 13:47:09;;;;;;;11.13;4.05;;;30.80;19.60;;;;;;6904629;25;20706;-67
2024/04/09 13:50:24;;;;;;;9.45;3.53;;;30.70;19.60;;;;;;6905017;25;20332;-67
2024/04/09 13:53:48;;;;;;;9.02;2.95;;;30.70;20.00;;;;;;6902123;25;20439;-67
2024/04/09 13:56:58;;;;;;;6.32;2.53;;;30.70;19.60;;;;;;6872630;25;20217;-68
2024/04/09 14:00:07;;;;;;;6.05;2.85;;;30.40;20.10;;;;;;6905558;25;20313;-68
2024/04/09 14:03:29;;;;;;;9.68;3.20;;;30.50;20.40;;;;;;6907053;25;20220;-67
2024/04/09 14:06:36;;;;;;;7.88;2.75;;;30.70;19.90;;;;;;6904263;25;20732;-66
2024/04/09 14:09:46;;;;;;;9.80;3.65;;;30.60;19.90;;;;;;6901365;25;20678;-66
2024/04/09 14:13:03;;;;;;;9.52;3.00;;;30.50;20.10;;;;;;6904023;25;20367;-65
2024/04/09 14:16:09;;;;;;;10.07;3.45;;;30.40;20.10;;;;;;6845726;25;20618;-65
2024/04/09 14:19:19;;;;;;;9.50;2.78;;;30.40;20.10;;;;;;6900403;25;20233;-64
2024/04/09 14:22:33;;;;;;;17.73;3.80;;;30.40;20.40;;;;;;6861298;26;20325;-66
2024/04/09 14:25:46;;;;;;;18.30;3.95;;;30.40;21.10;;;;;;6858526;25;20237;-65
2024/04/09 14:28:51;;;;;;;9.55;3.28;;;30.40;20.60;;;;;;6859748;26;20221;-64
2024/04/09 14:32:05;;;;;;;10.10;3.30;;;30.30;21.00;;;;;;6860345;26;20221;-65
2024/04/09 14:35:11;;;;;;;11.45;3.85;;;30.20;21.30;;;;;;6860300;25;20232;-65
2024/04/09 14:38:27;;;;;;;14.13;3.72;;;30.10;21.30;;;;;;6886095;25;20316;-67
2024/04/09 14:41:38;;;;;;;9.68;3.40;;;30.00;21.70;;;;;;6892355;25;20232;-66
2024/04/09 14:44:56;;;;;;;10.50;3.08;;;29.90;21.40;;;;;;6903892;25;20455;-67
2024/04/09 14:48:04;;;;;;;8.40;2.92;;;29.60;21.60;;;;;;6904885;25;20363;-66
2024/04/09 14:51:11;;;;;;;9.73;3.33;;;29.40;21.90;;;;;;6903102;25;20274;-65
2024/04/09 14:54:16;;;;;;;12.60;3.40;;;29.30;22.40;;;;;;6902983;25;20232;-66
2024/04/09 14:57:38;;;;;;;8.88;3.40;;;29.10;22.30;;;;;;6904586;25;20220;-66
2024/04/09 15:00:42;;;;;;;8.60;2.83;;;29.10;22.40;;;;;;6904969;25;20732;-62
2024/04/09 15:03:50;;;;;;;10.80;3.80;;;28.90;22.40;;;;;;6904303;25;20231;-65
2024/04/09 15:06:53;;;;;;;9.57;3.30;;;28.80;22.30;;;;;;6906635;25;20272;-64
2024/04/09 15:10:10;;;;;;;11.20;3.93;;;28.80;22.40;;;;;;6906413;25;20584;-61
2024/04/09 15:13:36;;;;;;;9.03;3.10;;;28.70;22.90;;;;;;6903473;25;20274;-62
2024/04/09 15:16:40;;;;;;;10.47;4.30;;;28.60;23.00;;;;;;6892799;25;20244;-61
2024/04/09 15:19:47;;;;;;;13.13;3.60;;;28.60;22.90;;;;;;6895013;25;20251;-61
2024/04/09 15:22:54;;;;;;;11.90;4.40;;;28.50;22.70;;;;;;6904557;25;20228;-62
2024/04/09 15:26:02;;;;;;;10.70;3.40;;;28.30;23.30;;;;;;6852474;26;20312;-62
2024/04/09 15:29:21;;;;;;;10.50;3.37;;;28.30;23.40;;;;;;6891346;25;20678;-61
2024/04/09 15:32:34;;;;;;;8.97;3.50;;;28.20;23.50;;;;;;6870819;25;20225;-61
2024/04/09 15:35:40;;;;;;;14.00;3.40;;;28.10;23.70;;;;;;6890279;25;20240;-61
2024/04/09 15:38:48;;;;;;;8.23;2.80;;;28.00;24.00;;;;;;6902523;25;20232;-61
2024/04/09 15:41:53;;;;;;;9.40;2.80;;;28.00;24.20;;;;;;6902345;25;20216;-61
2024/04/09 15:45:01;;;;;;;7.77;2.57;;;28.00;24.20;;;;;;6902718;25;20236;-62
2024/04/09 15:48:07;;;;;;;10.87;3.23;;;27.80;24.30;;;;;;6903092;25;20216;-62
2024/04/09 15:51:19;;;;;;;10.23;3.50;;;27.70;24.50;;;;;;6903021;25;20231;-61
2024/04/09 15:54:24;;;;;;;9.80;3.40;;;27.50;24.50;;;;;;6902643;25;20301;-62
2024/04/09 15:57:31;;;;;;;10.83;3.20;;;27.30;24.90;;;;;;6896980;25;20240;-61
2024/04/09 16:00:46;;;;;;;10.73;4.13;;;27.20;25.10;;;;;;6901274;25;20232;-61
2024/04/09 16:03:56;;;;;;;7.50;3.17;;;27.20;25.50;;;;;;6899757;25;20229;-61
2024/04/09 16:07:04;;;;;;;10.47;3.13;;;27.10;25.70;;;;;;6894540;25;20347;-61
2024/04/09 16:10:12;;;;;;;6.70;3.73;;;27.00;25.90;;;;;;6902797;25;20232;-61
2024/04/09 16:13:19;;;;;;;11.03;4.63;;;26.90;26.00;;;;;;6904741;25;20336;-61
2024/04/09 16:16:41;;;;;;;5.57;3.13;;;26.80;26.10;;;;;;6876612;25;20584;-64
2024/04/09 16:19:49;;;;;;;12.63;3.43;;;26.70;26.80;;;;;;6857731;26;20242;-63
2024/04/09 16:22:56;;;;;;;11.53;4.30;;;26.60;26.60;;;;;;6861136;26;20237;-63
2024/04/09 16:26:07;;;;;;;8.37;3.07;;;26.40;26.70;;;;;;6817454;26;20246;-63
2024/04/09 16:29:15;;;;;;;6.20;2.93;;;26.30;27.00;;;;;;6847121;26;20237;-63
2024/04/09 16:32:28;;;;;;;8.40;3.23;;;26.00;27.20;;;;;;6857763;25;20271;-64
2024/04/09 16:35:40;;;;;;;13.87;10.57;;;26.00;27.40;;;;;;6896901;25;20232;-64